Aérodrome :
LOGIN :

S'inscrire | Disclaimer

   EN    FR    IT 

 










Légende :    VFR   VFR Marginal   IFR   IFR Intensif   IFR Très Intensif
Visi : 
Plafond : 
>= 8 km
>= 3000ft
5 à 8 km
1000 à 3000 ft
1500m à 5 km
500 à 1000 ft
800 à 1500m
200 à 500 ft
< 800m
< 200 ft
Symboles :   Orages  Brouillard  Fortes neiges  Fortes précipitations  Vent > 20 kt
SIGMETs :   Divers  Orages  Givrage  Turbulence  Onde Orograph.  Cendres Volcan.






- Altitude de l'aérodrome : 505 ft
- Code IATA : SXB


LFST - Strasbourg

DERNIER METAR :
  • 212200Z AUTO 35005KT 7000 NSC M01/M03 Q1037 NOSIG

METARs EXPIRÉS :
  • 212130Z AUTO 34004KT 7000 NSC M02/M03 Q1037 NOSIG
  • 212100Z AUTO 32004KT 7000 NSC M02/M03 Q1037 NOSIG
  • 212030Z AUTO 32006KT 7000 NSC M01/M02 Q1037 NOSIG
  • 212000Z AUTO 33004KT 8000 NSC M01/M02 Q1038 NOSIG
  • 211930Z AUTO 32005KT 8000 NSC M01/M02 Q1038 NOSIG

TAF TAF LFST
Valide du 21 à 18h jusqu'au 22 à 18h UTC


211704Z 2118/2218 34005KT 9000 FEW008
TEMPO 2200/2210 5000 BR BKN008
PROB30
TEMPO 2203/2209 3000 BR OVC004



MET'MAP, la Météo Aéronautique d'un coup d'oeil ! - Copyright ORBIFLY Décembre 2007 - Disclaimer

ORBIFLY MET'MAP TEAM :

Programmation & Développement : Alexandra Zaïnal
Sur une idée originale de : Baudouin d'Aumeries
Assistance à la programmation : Marc-Olivier Méhu
Soutien technique & logistique : Manuel Goepfert

Contact : metmap@orbifly.com




SOURCES & CREDITS :

   NOAA